1PS8 weather

Punxsutawney Area Hospital Heliport
Punxsutawney, Pennsylvania, United States

Public forecast

Using degrees Fahrenheit for public forecast. Weather courtesy of forecast.io.

METAR (pilot weather report)

Closest report is DuBois Regional Airport, 13.8 nm (25.6 km) NNE. Retrieved 2019/07/19 06:53 UTC (1 hour ago):

KDUJ 190653Z AUTO 23004KT 10SM CLR 20/19 A2998 RMK AO2 SLP137 T02000189

TAF (pilot weather forecast)

Closest forecast is DuBois Regional Airport, 13.8 nm (25.6 km) NNE. Retrieved 2019/07/19 06:22 UTC (2 hours ago):

TAF KDUJ 190520Z 1906/2006 VRB02KT P6SM SKC TEMPO 1908/1912 1SM BR SCT005 FM191200 22008KT P6SM SCT015 FM191800 23012G18KT P6SM BKN040 FM200300 22006KT P6SM BKN030